sensor_id;sensor_type;location;lat;lon;timestamp;temperature;humidity
14769;DHT22;7476;49.404;11.152;2023-09-07T00:01:50;11.60;99.90
14769;DHT22;7476;49.404;11.152;2023-09-07T00:04:18;11.50;99.90
14769;DHT22;7476;49.404;11.152;2023-09-07T00:06:44;11.50;99.90
14769;DHT22;7476;49.404;11.152;2023-09-07T00:09:11;11.50;99.90
14769;DHT22;7476;49.404;11.152;2023-09-07T00:11:40;11.40;99.90
14769;DHT22;7476;49.404;11.152;2023-09-07T00:14:06;11.40;99.90
14769;DHT22;7476;49.404;11.152;2023-09-07T00:16:33;11.40;99.90
14769;DHT22;7476;49.404;11.152;2023-09-07T00:19:00;11.30;99.90
14769;DHT22;7476;49.404;11.152;2023-09-07T00:21:28;11.30;99.90
14769;DHT22;7476;49.404;11.152;2023-09-07T00:23:55;11.20;99.90
14769;DHT22;7476;49.404;11.152;2023-09-07T00:26:22;11.20;99.90
14769;DHT22;7476;49.404;11.152;2023-09-07T00:28:50;11.20;99.90
14769;DHT22;7476;49.404;11.152;2023-09-07T00:31:16;11.10;99.90
14769;DHT22;7476;49.404;11.152;2023-09-07T00:33:43;11.10;99.90
14769;DHT22;7476;49.404;11.152;2023-09-07T00:36:09;11.20;99.90
14769;DHT22;7476;49.404;11.152;2023-09-07T00:38:36;11.10;99.90
14769;DHT22;7476;49.404;11.152;2023-09-07T00:41:03;11.20;99.90
14769;DHT22;7476;49.404;11.152;2023-09-07T00:43:30;11.20;99.90
14769;DHT22;7476;49.404;11.152;2023-09-07T00:45:58;11.10;99.90
14769;DHT22;7476;49.404;11.152;2023-09-07T00:48:24;11.00;99.90
14769;DHT22;7476;49.404;11.152;2023-09-07T00:50:51;11.10;99.90
14769;DHT22;7476;49.404;11.152;2023-09-07T00:53:18;11.00;99.90
14769;DHT22;7476;49.404;11.152;2023-09-07T00:55:45;10.90;99.90
14769;DHT22;7476;49.404;11.152;2023-09-07T00:58:12;10.90;99.90
14769;DHT22;7476;49.404;11.152;2023-09-07T01:00:39;10.80;99.90
14769;DHT22;7476;49.404;11.152;2023-09-07T01:03:07;10.90;99.90
14769;DHT22;7476;49.404;11.152;2023-09-07T01:05:41;11.00;99.90
14769;DHT22;7476;49.404;11.152;2023-09-07T01:08:19;11.10;99.90
14769;DHT22;7476;49.404;11.152;2023-09-07T01:10:49;11.00;99.90
14769;DHT22;7476;49.404;11.152;2023-09-07T01:13:16;11.00;99.90
14769;DHT22;7476;49.404;11.152;2023-09-07T01:15:42;10.80;99.90
14769;DHT22;7476;49.404;11.152;2023-09-07T01:18:11;10.70;99.90
14769;DHT22;7476;49.404;11.152;2023-09-07T01:20:40;10.60;99.90
14769;DHT22;7476;49.404;11.152;2023-09-07T01:23:08;10.50;99.90
14769;DHT22;7476;49.404;11.152;2023-09-07T01:25:36;10.50;99.90
14769;DHT22;7476;49.404;11.152;2023-09-07T01:28:03;10.40;99.90
14769;DHT22;7476;49.404;11.152;2023-09-07T01:30:30;10.40;99.90
14769;DHT22;7476;49.404;11.152;2023-09-07T01:32:57;10.40;99.90
14769;DHT22;7476;49.404;11.152;2023-09-07T01:35:24;10.40;99.90
14769;DHT22;7476;49.404;11.152;2023-09-07T01:37:51;10.40;99.90
14769;DHT22;7476;49.404;11.152;2023-09-07T01:40:20;10.40;99.90
14769;DHT22;7476;49.404;11.152;2023-09-07T01:42:46;10.30;99.90
14769;DHT22;7476;49.404;11.152;2023-09-07T01:45:13;10.60;99.90
14769;DHT22;7476;49.404;11.152;2023-09-07T01:47:40;10.70;99.90
14769;DHT22;7476;49.404;11.152;2023-09-07T01:50:07;10.40;99.90
14769;DHT22;7476;49.404;11.152;2023-09-07T01:52:34;10.30;99.90
14769;DHT22;7476;49.404;11.152;2023-09-07T01:55:00;10.20;99.90
14769;DHT22;7476;49.404;11.152;2023-09-07T01:57:28;10.10;99.90
14769;DHT22;7476;49.404;11.152;2023-09-07T01:59:55;10.10;99.90
14769;DHT22;7476;49.404;11.152;2023-09-07T02:02:22;10.20;99.90
14769;DHT22;7476;49.404;11.152;2023-09-07T02:04:49;10.30;99.90
14769;DHT22;7476;49.404;11.152;2023-09-07T02:07:15;10.30;99.90
14769;DHT22;7476;49.404;11.152;2023-09-07T02:09:42;10.20;99.90
14769;DHT22;7476;49.404;11.152;2023-09-07T02:12:09;10.10;99.90
14769;DHT22;7476;49.404;11.152;2023-09-07T02:14:37;10.00;99.90
14769;DHT22;7476;49.404;11.152;2023-09-07T02:17:04;9.90;99.90
14769;DHT22;7476;49.404;11.152;2023-09-07T02:19:30;9.90;99.90
14769;DHT22;7476;49.404;11.152;2023-09-07T02:21:57;9.80;99.90
14769;DHT22;7476;49.404;11.152;2023-09-07T02:24:24;9.80;99.90
14769;DHT22;7476;49.404;11.152;2023-09-07T02:26:50;9.80;99.90
14769;DHT22;7476;49.404;11.152;2023-09-07T02:29:17;9.70;99.90
14769;DHT22;7476;49.404;11.152;2023-09-07T02:31:45;9.70;99.90
14769;DHT22;7476;49.404;11.152;2023-09-07T02:34:12;9.70;99.90
14769;DHT22;7476;49.404;11.152;2023-09-07T02:36:38;9.80;99.90
14769;DHT22;7476;49.404;11.152;2023-09-07T02:39:05;9.70;99.90
14769;DHT22;7476;49.404;11.152;2023-09-07T02:41:34;9.70;99.90
14769;DHT22;7476;49.404;11.152;2023-09-07T02:44:00;9.70;99.90
14769;DHT22;7476;49.404;11.152;2023-09-07T02:46:28;9.60;99.90
14769;DHT22;7476;49.404;11.152;2023-09-07T02:48:56;9.70;99.90
14769;DHT22;7476;49.404;11.152;2023-09-07T02:51:23;9.50;99.90
14769;DHT22;7476;49.404;11.152;2023-09-07T02:53:49;9.40;99.90
14769;DHT22;7476;49.404;11.152;2023-09-07T02:56:16;9.40;99.90
14769;DHT22;7476;49.404;11.152;2023-09-07T02:58:43;9.40;99.90
14769;DHT22;7476;49.404;11.152;2023-09-07T03:01:10;9.40;99.90
14769;DHT22;7476;49.404;11.152;2023-09-07T03:03:38;9.30;99.90
14769;DHT22;7476;49.404;11.152;2023-09-07T03:06:10;9.40;99.90
14769;DHT22;7476;49.404;11.152;2023-09-07T03:08:38;9.40;99.90
14769;DHT22;7476;49.404;11.152;2023-09-07T03:11:05;9.60;99.90
14769;DHT22;7476;49.404;11.152;2023-09-07T03:13:32;9.50;99.90
14769;DHT22;7476;49.404;11.152;2023-09-07T03:16:00;9.40;99.90
14769;DHT22;7476;49.404;11.152;2023-09-07T03:18:27;9.30;99.90
14769;DHT22;7476;49.404;11.152;2023-09-07T03:20:55;9.30;99.90
14769;DHT22;7476;49.404;11.152;2023-09-07T03:23:24;9.20;99.90
14769;DHT22;7476;49.404;11.152;2023-09-07T03:25:50;9.10;99.90
14769;DHT22;7476;49.404;11.152;2023-09-07T03:28:17;9.10;99.90
14769;DHT22;7476;49.404;11.152;2023-09-07T03:30:44;9.20;99.90
14769;DHT22;7476;49.404;11.152;2023-09-07T03:33:10;9.20;99.90
14769;DHT22;7476;49.404;11.152;2023-09-07T03:35:37;9.40;99.90
14769;DHT22;7476;49.404;11.152;2023-09-07T03:38:04;9.30;99.90
14769;DHT22;7476;49.404;11.152;2023-09-07T03:40:32;9.30;99.90
14769;DHT22;7476;49.404;11.152;2023-09-07T03:42:59;9.20;99.90
14769;DHT22;7476;49.404;11.152;2023-09-07T03:45:25;9.20;99.90
14769;DHT22;7476;49.404;11.152;2023-09-07T03:47:52;9.20;99.90
14769;DHT22;7476;49.404;11.152;2023-09-07T03:50:19;9.10;99.90
14769;DHT22;7476;49.404;11.152;2023-09-07T03:52:46;9.10;99.90
14769;DHT22;7476;49.404;11.152;2023-09-07T03:55:12;9.10;99.90
14769;DHT22;7476;49.404;11.152;2023-09-07T03:57:40;9.10;99.90
14769;DHT22;7476;49.404;11.152;2023-09-07T04:00:08;9.10;99.90
14769;DHT22;7476;49.404;11.152;2023-09-07T04:02:35;9.10;99.90
14769;DHT22;7476;49.404;11.152;2023-09-07T04:05:02;9.00;99.90
14769;DHT22;7476;49.404;11.152;2023-09-07T04:07:30;9.10;99.90
14769;DHT22;7476;49.404;11.152;2023-09-07T04:09:57;9.10;99.90
14769;DHT22;7476;49.404;11.152;2023-09-07T04:12:24;9.10;99.90
14769;DHT22;7476;49.404;11.152;2023-09-07T04:14:52;9.00;99.90
14769;DHT22;7476;49.404;11.152;2023-09-07T04:17:19;9.00;99.90
14769;DHT22;7476;49.404;11.152;2023-09-07T04:19:46;8.90;99.90
14769;DHT22;7476;49.404;11.152;2023-09-07T04:22:13;8.90;99.90
14769;DHT22;7476;49.404;11.152;2023-09-07T04:24:39;8.90;99.90
14769;DHT22;7476;49.404;11.152;2023-09-07T04:27:06;8.90;99.90
14769;DHT22;7476;49.404;11.152;2023-09-07T04:29:33;9.00;99.90
14769;DHT22;7476;49.404;11.152;2023-09-07T04:32:01;9.00;99.90
14769;DHT22;7476;49.404;11.152;2023-09-07T04:34:27;8.90;99.90
14769;DHT22;7476;49.404;11.152;2023-09-07T04:36:54;8.80;99.90
14769;DHT22;7476;49.404;11.152;2023-09-07T04:39:21;8.80;99.90
14769;DHT22;7476;49.404;11.152;2023-09-07T04:41:47;8.80;99.90
14769;DHT22;7476;49.404;11.152;2023-09-07T04:44:14;8.70;99.90
14769;DHT22;7476;49.404;11.152;2023-09-07T04:46:41;8.80;99.90
14769;DHT22;7476;49.404;11.152;2023-09-07T04:49:09;9.20;99.90
14769;DHT22;7476;49.404;11.152;2023-09-07T04:51:35;8.90;99.90
14769;DHT22;7476;49.404;11.152;2023-09-07T04:54:02;8.90;99.90
14769;DHT22;7476;49.404;11.152;2023-09-07T04:56:29;8.90;99.90
14769;DHT22;7476;49.404;11.152;2023-09-07T04:58:55;8.90;99.90
14769;DHT22;7476;49.404;11.152;2023-09-07T05:01:22;8.90;99.90
14769;DHT22;7476;49.404;11.152;2023-09-07T05:03:49;8.90;99.90
14769;DHT22;7476;49.404;11.152;2023-09-07T05:06:18;8.90;99.90
14769;DHT22;7476;49.404;11.152;2023-09-07T05:08:45;8.90;99.90
14769;DHT22;7476;49.404;11.152;2023-09-07T05:11:11;8.90;99.90
14769;DHT22;7476;49.404;11.152;2023-09-07T05:13:38;9.20;99.90
14769;DHT22;7476;49.404;11.152;2023-09-07T05:16:05;9.20;99.90
14769;DHT22;7476;49.404;11.152;2023-09-07T05:18:31;9.10;99.90
14769;DHT22;7476;49.404;11.152;2023-09-07T05:20:58;9.20;99.90
14769;DHT22;7476;49.404;11.152;2023-09-07T05:23:26;9.40;99.90
14769;DHT22;7476;49.404;11.152;2023-09-07T05:25:54;9.40;99.90
14769;DHT22;7476;49.404;11.152;2023-09-07T05:28:22;9.50;99.90
14769;DHT22;7476;49.404;11.152;2023-09-07T05:30:49;9.60;99.90
14769;DHT22;7476;49.404;11.152;2023-09-07T05:33:17;9.70;99.90
14769;DHT22;7476;49.404;11.152;2023-09-07T05:35:44;10.40;99.90
14769;DHT22;7476;49.404;11.152;2023-09-07T05:38:12;11.20;99.90
14769;DHT22;7476;49.404;11.152;2023-09-07T05:40:41;12.10;99.90
14769;DHT22;7476;49.404;11.152;2023-09-07T05:43:09;12.70;99.90
14769;DHT22;7476;49.404;11.152;2023-09-07T05:45:37;13.40;99.90
14769;DHT22;7476;49.404;11.152;2023-09-07T05:48:04;13.80;99.90
14769;DHT22;7476;49.404;11.152;2023-09-07T05:50:33;14.10;99.90
14769;DHT22;7476;49.404;11.152;2023-09-07T05:52:59;14.40;99.90
14769;DHT22;7476;49.404;11.152;2023-09-07T05:55:26;14.70;99.90
14769;DHT22;7476;49.404;11.152;2023-09-07T05:57:56;15.20;99.90
14769;DHT22;7476;49.404;11.152;2023-09-07T06:00:22;15.70;99.90
14769;DHT22;7476;49.404;11.152;2023-09-07T06:02:49;15.80;99.90
14769;DHT22;7476;49.404;11.152;2023-09-07T06:05:16;16.10;99.90
14769;DHT22;7476;49.404;11.152;2023-09-07T06:07:43;16.60;99.90
14769;DHT22;7476;49.404;11.152;2023-09-07T06:10:10;16.70;99.90
14769;DHT22;7476;49.404;11.152;2023-09-07T06:12:37;17.00;99.90
14769;DHT22;7476;49.404;11.152;2023-09-07T06:15:06;17.00;99.90
14769;DHT22;7476;49.404;11.152;2023-09-07T06:17:33;17.70;99.90
14769;DHT22;7476;49.404;11.152;2023-09-07T06:20:00;18.40;99.90
14769;DHT22;7476;49.404;11.152;2023-09-07T06:22:26;18.80;99.90
14769;DHT22;7476;49.404;11.152;2023-09-07T06:24:53;19.00;99.90
14769;DHT22;7476;49.404;11.152;2023-09-07T06:27:20;19.50;99.90
14769;DHT22;7476;49.404;11.152;2023-09-07T06:29:46;20.10;99.90
14769;DHT22;7476;49.404;11.152;2023-09-07T06:32:14;20.60;95.50
14769;DHT22;7476;49.404;11.152;2023-09-07T06:34:41;21.10;99.90
14769;DHT22;7476;49.404;11.152;2023-09-07T06:37:08;21.40;99.90
14769;DHT22;7476;49.404;11.152;2023-09-07T06:39:34;21.80;99.90
14769;DHT22;7476;49.404;11.152;2023-09-07T06:42:01;21.70;1.00
14769;DHT22;7476;49.404;11.152;2023-09-07T06:44:29;21.60;23.20
14769;DHT22;7476;49.404;11.152;2023-09-07T06:46:56;21.60;52.10
14769;DHT22;7476;49.404;11.152;2023-09-07T06:49:24;22.20;99.90
14769;DHT22;7476;49.404;11.152;2023-09-07T06:51:50;22.80;1.00
14769;DHT22;7476;49.404;11.152;2023-09-07T06:54:17;22.20;1.00
14769;DHT22;7476;49.404;11.152;2023-09-07T06:56:44;22.30;1.00
14769;DHT22;7476;49.404;11.152;2023-09-07T06:59:10;22.50;9.50
14769;DHT22;7476;49.404;11.152;2023-09-07T07:01:37;23.20;1.00
14769;DHT22;7476;49.404;11.152;2023-09-07T07:04:04;23.30;1.00
14769;DHT22;7476;49.404;11.152;2023-09-07T07:06:32;23.30;1.00
14769;DHT22;7476;49.404;11.152;2023-09-07T07:08:58;23.60;99.90
14769;DHT22;7476;49.404;11.152;2023-09-07T07:11:25;24.40;1.00
14769;DHT22;7476;49.404;11.152;2023-09-07T07:13:52;24.60;99.90
14769;DHT22;7476;49.404;11.152;2023-09-07T07:16:18;25.40;99.90
14769;DHT22;7476;49.404;11.152;2023-09-07T07:18:45;25.50;99.90
14769;DHT22;7476;49.404;11.152;2023-09-07T07:21:11;25.70;99.90
14769;DHT22;7476;49.404;11.152;2023-09-07T07:23:39;25.80;1.00
14769;DHT22;7476;49.404;11.152;2023-09-07T07:26:06;25.80;1.00
14769;DHT22;7476;49.404;11.152;2023-09-07T07:28:34;25.90;1.00
14769;DHT22;7476;49.404;11.152;2023-09-07T07:31:07;25.70;1.00
14769;DHT22;7476;49.404;11.152;2023-09-07T07:33:33;26.10;1.00
14769;DHT22;7476;49.404;11.152;2023-09-07T07:36:00;25.40;1.00
14769;DHT22;7476;49.404;11.152;2023-09-07T07:38:27;25.10;1.00
14769;DHT22;7476;49.404;11.152;2023-09-07T07:40:55;25.20;1.00
14769;DHT22;7476;49.404;11.152;2023-09-07T07:43:21;25.50;99.90
14769;DHT22;7476;49.404;11.152;2023-09-07T07:45:48;25.30;99.90
14769;DHT22;7476;49.404;11.152;2023-09-07T07:48:15;25.50;1.00
14769;DHT22;7476;49.404;11.152;2023-09-07T07:50:41;25.60;99.90
14769;DHT22;7476;49.404;11.152;2023-09-07T07:53:09;25.00;1.00
14769;DHT22;7476;49.404;11.152;2023-09-07T07:55:35;25.00;1.00
14769;DHT22;7476;49.404;11.152;2023-09-07T07:58:06;24.20;1.00
14769;DHT22;7476;49.404;11.152;2023-09-07T08:00:33;24.40;1.00
14769;DHT22;7476;49.404;11.152;2023-09-07T08:02:59;24.80;99.90
14769;DHT22;7476;49.404;11.152;2023-09-07T08:05:27;25.40;1.00
14769;DHT22;7476;49.404;11.152;2023-09-07T08:07:54;26.50;1.00
14769;DHT22;7476;49.404;11.152;2023-09-07T08:10:20;26.90;1.00
14769;DHT22;7476;49.404;11.152;2023-09-07T08:12:47;26.90;1.00
14769;DHT22;7476;49.404;11.152;2023-09-07T08:15:15;26.30;99.90
14769;DHT22;7476;49.404;11.152;2023-09-07T08:17:45;26.90;1.00
14769;DHT22;7476;49.404;11.152;2023-09-07T08:20:13;27.10;1.00
14769;DHT22;7476;49.404;11.152;2023-09-07T08:22:39;27.00;1.00
14769;DHT22;7476;49.404;11.152;2023-09-07T08:25:10;27.30;1.00
14769;DHT22;7476;49.404;11.152;2023-09-07T08:27:37;27.60;99.90
14769;DHT22;7476;49.404;11.152;2023-09-07T08:30:04;27.40;99.90
14769;DHT22;7476;49.404;11.152;2023-09-07T08:32:33;26.80;1.00
14769;DHT22;7476;49.404;11.152;2023-09-07T08:35:00;27.10;1.00
14769;DHT22;7476;49.404;11.152;2023-09-07T08:37:27;26.90;99.90
14769;DHT22;7476;49.404;11.152;2023-09-07T08:39:55;26.70;99.90
14769;DHT22;7476;49.404;11.152;2023-09-07T08:42:23;27.00;99.90
14769;DHT22;7476;49.404;11.152;2023-09-07T08:44:51;27.30;1.00
14769;DHT22;7476;49.404;11.152;2023-09-07T08:47:20;27.80;1.00
14769;DHT22;7476;49.404;11.152;2023-09-07T08:49:48;27.90;1.00
14769;DHT22;7476;49.404;11.152;2023-09-07T08:52:15;27.80;1.00
14769;DHT22;7476;49.404;11.152;2023-09-07T08:54:43;27.30;1.00
14769;DHT22;7476;49.404;11.152;2023-09-07T08:57:10;27.60;1.00
14769;DHT22;7476;49.404;11.152;2023-09-07T08:59:37;28.20;1.00
14769;DHT22;7476;49.404;11.152;2023-09-07T09:02:07;28.40;99.90
14769;DHT22;7476;49.404;11.152;2023-09-07T09:04:36;28.80;99.90
14769;DHT22;7476;49.404;11.152;2023-09-07T09:07:05;27.50;99.90
14769;DHT22;7476;49.404;11.152;2023-09-07T09:09:32;27.30;1.00
14769;DHT22;7476;49.404;11.152;2023-09-07T09:12:06;27.80;1.00
14769;DHT22;7476;49.404;11.152;2023-09-07T09:14:33;27.40;1.00
14769;DHT22;7476;49.404;11.152;2023-09-07T09:17:00;27.80;1.00
14769;DHT22;7476;49.404;11.152;2023-09-07T09:19:31;27.80;99.90
14769;DHT22;7476;49.404;11.152;2023-09-07T09:21:57;27.90;99.90
14769;DHT22;7476;49.404;11.152;2023-09-07T09:24:26;27.90;99.90
14769;DHT22;7476;49.404;11.152;2023-09-07T09:26:52;27.90;99.90
14769;DHT22;7476;49.404;11.152;2023-09-07T09:29:22;28.10;99.90
14769;DHT22;7476;49.404;11.152;2023-09-07T09:31:50;28.20;99.90
14769;DHT22;7476;49.404;11.152;2023-09-07T09:34:18;28.30;99.90
14769;DHT22;7476;49.404;11.152;2023-09-07T09:36:44;27.90;99.90
14769;DHT22;7476;49.404;11.152;2023-09-07T09:39:22;27.80;99.90
14769;DHT22;7476;49.404;11.152;2023-09-07T09:41:50;28.30;99.90
14769;DHT22;7476;49.404;11.152;2023-09-07T09:44:17;28.70;99.90
14769;DHT22;7476;49.404;11.152;2023-09-07T09:46:46;29.00;92.20
14769;DHT22;7476;49.404;11.152;2023-09-07T09:49:14;28.20;94.20
14769;DHT22;7476;49.404;11.152;2023-09-07T09:51:42;28.60;97.00
14769;DHT22;7476;49.404;11.152;2023-09-07T09:54:09;29.00;18.60
14769;DHT22;7476;49.404;11.152;2023-09-07T09:56:36;29.20;46.30
14769;DHT22;7476;49.404;11.152;2023-09-07T09:59:04;29.10;94.60
14769;DHT22;7476;49.404;11.152;2023-09-07T10:01:38;28.90;77.40
14769;DHT22;7476;49.404;11.152;2023-09-07T10:04:08;28.80;69.80
14769;DHT22;7476;49.404;11.152;2023-09-07T10:06:36;29.00;1.00
14769;DHT22;7476;49.404;11.152;2023-09-07T10:09:05;28.60;1.00
14769;DHT22;7476;49.404;11.152;2023-09-07T10:11:37;29.10;28.60
14769;DHT22;7476;49.404;11.152;2023-09-07T10:14:07;28.50;55.40
14769;DHT22;7476;49.404;11.152;2023-09-07T10:16:44;28.60;1.00
14769;DHT22;7476;49.404;11.152;2023-09-07T10:19:15;28.80;1.00
14769;DHT22;7476;49.404;11.152;2023-09-07T10:21:42;28.60;25.10
14769;DHT22;7476;49.404;11.152;2023-09-07T10:24:09;28.60;4.20
14769;DHT22;7476;49.404;11.152;2023-09-07T10:26:35;28.60;17.40
14769;DHT22;7476;49.404;11.152;2023-09-07T10:29:02;29.00;1.00
14769;DHT22;7476;49.404;11.152;2023-09-07T10:31:32;29.20;33.40
14769;DHT22;7476;49.404;11.152;2023-09-07T10:34:08;29.30;16.60
14769;DHT22;7476;49.404;11.152;2023-09-07T10:36:36;29.50;1.00
14769;DHT22;7476;49.404;11.152;2023-09-07T10:39:03;29.70;1.00
14769;DHT22;7476;49.404;11.152;2023-09-07T10:41:40;29.80;1.00
14769;DHT22;7476;49.404;11.152;2023-09-07T10:44:06;29.70;1.00
14769;DHT22;7476;49.404;11.152;2023-09-07T10:46:34;30.10;1.00
14769;DHT22;7476;49.404;11.152;2023-09-07T10:49:01;30.70;1.00
14769;DHT22;7476;49.404;11.152;2023-09-07T10:51:28;30.90;1.00
14769;DHT22;7476;49.404;11.152;2023-09-07T10:53:55;31.10;1.00
14769;DHT22;7476;49.404;11.152;2023-09-07T10:56:24;31.20;1.00
14769;DHT22;7476;49.404;11.152;2023-09-07T10:58:53;31.60;1.00
14769;DHT22;7476;49.404;11.152;2023-09-07T11:01:20;30.90;1.00
14769;DHT22;7476;49.404;11.152;2023-09-07T11:03:48;30.10;1.00
14769;DHT22;7476;49.404;11.152;2023-09-07T11:06:17;29.70;1.00
14769;DHT22;7476;49.404;11.152;2023-09-07T11:08:46;30.30;1.00
14769;DHT22;7476;49.404;11.152;2023-09-07T11:11:13;30.40;1.00
14769;DHT22;7476;49.404;11.152;2023-09-07T11:13:39;30.70;1.00
14769;DHT22;7476;49.404;11.152;2023-09-07T11:16:08;32.20;1.00
14769;DHT22;7476;49.404;11.152;2023-09-07T11:18:36;33.10;1.00
14769;DHT22;7476;49.404;11.152;2023-09-07T11:21:04;33.20;1.00
14769;DHT22;7476;49.404;11.152;2023-09-07T11:23:33;33.40;1.00
14769;DHT22;7476;49.404;11.152;2023-09-07T11:26:04;32.60;1.00
14769;DHT22;7476;49.404;11.152;2023-09-07T11:28:31;32.70;1.00
14769;DHT22;7476;49.404;11.152;2023-09-07T11:30:59;33.40;1.00
14769;DHT22;7476;49.404;11.152;2023-09-07T11:33:26;31.60;1.00
14769;DHT22;7476;49.404;11.152;2023-09-07T11:35:53;32.20;1.00
14769;DHT22;7476;49.404;11.152;2023-09-07T11:38:22;32.80;1.00
14769;DHT22;7476;49.404;11.152;2023-09-07T11:40:48;33.70;1.00
14769;DHT22;7476;49.404;11.152;2023-09-07T11:43:16;34.70;1.00
14769;DHT22;7476;49.404;11.152;2023-09-07T11:45:45;35.20;1.00
14769;DHT22;7476;49.404;11.152;2023-09-07T11:48:12;34.00;1.00
14769;DHT22;7476;49.404;11.152;2023-09-07T11:50:39;33.80;1.00
14769;DHT22;7476;49.404;11.152;2023-09-07T11:53:07;34.40;1.00
14769;DHT22;7476;49.404;11.152;2023-09-07T11:55:35;34.60;1.00
14769;DHT22;7476;49.404;11.152;2023-09-07T11:58:03;35.10;1.00
14769;DHT22;7476;49.404;11.152;2023-09-07T12:00:30;34.90;1.00
14769;DHT22;7476;49.404;11.152;2023-09-07T12:02:57;33.30;1.00
14769;DHT22;7476;49.404;11.152;2023-09-07T12:05:24;32.80;1.00
14769;DHT22;7476;49.404;11.152;2023-09-07T12:07:50;33.80;1.00
14769;DHT22;7476;49.404;11.152;2023-09-07T12:10:17;34.40;1.00
14769;DHT22;7476;49.404;11.152;2023-09-07T12:12:45;34.40;1.00
14769;DHT22;7476;49.404;11.152;2023-09-07T12:15:12;34.60;1.00
14769;DHT22;7476;49.404;11.152;2023-09-07T12:17:38;35.10;1.00
14769;DHT22;7476;49.404;11.152;2023-09-07T12:20:06;35.60;1.00
14769;DHT22;7476;49.404;11.152;2023-09-07T12:22:35;35.70;1.00
14769;DHT22;7476;49.404;11.152;2023-09-07T12:25:03;36.70;1.00
14769;DHT22;7476;49.404;11.152;2023-09-07T12:27:32;37.40;1.00
14769;DHT22;7476;49.404;11.152;2023-09-07T12:30:00;37.10;1.00
14769;DHT22;7476;49.404;11.152;2023-09-07T12:32:31;36.20;1.00
14769;DHT22;7476;49.404;11.152;2023-09-07T12:34:58;36.10;1.00
14769;DHT22;7476;49.404;11.152;2023-09-07T12:37:25;36.30;1.00
14769;DHT22;7476;49.404;11.152;2023-09-07T12:39:52;35.70;1.00
14769;DHT22;7476;49.404;11.152;2023-09-07T12:42:18;37.00;1.00
14769;DHT22;7476;49.404;11.152;2023-09-07T12:44:45;36.60;1.00
14769;DHT22;7476;49.404;11.152;2023-09-07T12:47:13;35.30;1.00
14769;DHT22;7476;49.404;11.152;2023-09-07T12:49:39;35.50;1.00
14769;DHT22;7476;49.404;11.152;2023-09-07T12:52:07;37.50;1.00
14769;DHT22;7476;49.404;11.152;2023-09-07T12:54:36;38.20;1.00
14769;DHT22;7476;49.404;11.152;2023-09-07T12:57:03;37.70;1.00
14769;DHT22;7476;49.404;11.152;2023-09-07T12:59:30;35.50;1.00
14769;DHT22;7476;49.404;11.152;2023-09-07T13:01:57;34.40;1.00
14769;DHT22;7476;49.404;11.152;2023-09-07T13:04:25;34.40;1.00
14769;DHT22;7476;49.404;11.152;2023-09-07T13:06:51;35.70;1.00
14769;DHT22;7476;49.404;11.152;2023-09-07T13:09:18;37.10;1.00
14769;DHT22;7476;49.404;11.152;2023-09-07T13:11:44;38.50;1.00
14769;DHT22;7476;49.404;11.152;2023-09-07T13:14:11;36.70;1.00
14769;DHT22;7476;49.404;11.152;2023-09-07T13:16:38;35.90;1.00
14769;DHT22;7476;49.404;11.152;2023-09-07T13:19:04;35.80;1.00
14769;DHT22;7476;49.404;11.152;2023-09-07T13:21:33;36.50;1.00
14769;DHT22;7476;49.404;11.152;2023-09-07T13:23:59;38.10;1.00
14769;DHT22;7476;49.404;11.152;2023-09-07T13:26:26;36.10;1.00
14769;DHT22;7476;49.404;11.152;2023-09-07T13:28:53;35.30;1.00
14769;DHT22;7476;49.404;11.152;2023-09-07T13:31:19;34.50;1.00
14769;DHT22;7476;49.404;11.152;2023-09-07T13:33:46;36.10;1.00
14769;DHT22;7476;49.404;11.152;2023-09-07T13:36:13;38.00;1.00
14769;DHT22;7476;49.404;11.152;2023-09-07T13:38:41;38.30;1.00
14769;DHT22;7476;49.404;11.152;2023-09-07T13:41:07;36.80;1.00
14769;DHT22;7476;49.404;11.152;2023-09-07T13:43:34;35.30;1.00
14769;DHT22;7476;49.404;11.152;2023-09-07T13:46:01;34.40;1.00
14769;DHT22;7476;49.404;11.152;2023-09-07T13:48:27;35.60;1.00
14769;DHT22;7476;49.404;11.152;2023-09-07T13:50:55;36.50;1.00
14769;DHT22;7476;49.404;11.152;2023-09-07T13:53:22;37.50;1.00
14769;DHT22;7476;49.404;11.152;2023-09-07T13:55:50;38.70;1.00
14769;DHT22;7476;49.404;11.152;2023-09-07T13:58:16;37.80;1.00
14769;DHT22;7476;49.404;11.152;2023-09-07T14:00:43;36.90;1.00
14769;DHT22;7476;49.404;11.152;2023-09-07T14:03:12;37.50;1.00
14769;DHT22;7476;49.404;11.152;2023-09-07T14:05:38;37.40;1.00
14769;DHT22;7476;49.404;11.152;2023-09-07T14:08:05;35.80;1.00
14769;DHT22;7476;49.404;11.152;2023-09-07T14:10:32;37.40;1.00
14769;DHT22;7476;49.404;11.152;2023-09-07T14:13:00;37.10;1.00
14769;DHT22;7476;49.404;11.152;2023-09-07T14:15:26;36.30;1.00
14769;DHT22;7476;49.404;11.152;2023-09-07T14:17:54;37.50;1.00
14769;DHT22;7476;49.404;11.152;2023-09-07T14:20:20;37.90;1.00
14769;DHT22;7476;49.404;11.152;2023-09-07T14:22:47;37.30;1.00
14769;DHT22;7476;49.404;11.152;2023-09-07T14:25:14;35.90;1.00
14769;DHT22;7476;49.404;11.152;2023-09-07T14:27:41;37.00;1.00
14769;DHT22;7476;49.404;11.152;2023-09-07T14:30:10;37.80;1.00
14769;DHT22;7476;49.404;11.152;2023-09-07T14:32:38;37.30;1.00
14769;DHT22;7476;49.404;11.152;2023-09-07T14:35:05;38.00;1.00
14769;DHT22;7476;49.404;11.152;2023-09-07T14:37:34;37.70;1.00
14769;DHT22;7476;49.404;11.152;2023-09-07T14:40:01;36.20;1.00
14769;DHT22;7476;49.404;11.152;2023-09-07T14:42:27;36.20;1.00
14769;DHT22;7476;49.404;11.152;2023-09-07T14:44:54;36.90;1.00
14769;DHT22;7476;49.404;11.152;2023-09-07T14:47:24;35.00;1.00
14769;DHT22;7476;49.404;11.152;2023-09-07T14:49:51;34.60;1.00
14769;DHT22;7476;49.404;11.152;2023-09-07T14:52:18;36.90;1.00
14769;DHT22;7476;49.404;11.152;2023-09-07T14:54:47;37.60;1.00
14769;DHT22;7476;49.404;11.152;2023-09-07T14:57:13;37.90;1.00
14769;DHT22;7476;49.404;11.152;2023-09-07T14:59:40;37.10;1.00
14769;DHT22;7476;49.404;11.152;2023-09-07T15:02:07;36.80;1.00
14769;DHT22;7476;49.404;11.152;2023-09-07T15:04:34;35.80;1.00
14769;DHT22;7476;49.404;11.152;2023-09-07T15:07:01;36.40;1.00
14769;DHT22;7476;49.404;11.152;2023-09-07T15:09:28;35.70;1.00
14769;DHT22;7476;49.404;11.152;2023-09-07T15:11:55;36.10;1.00
14769;DHT22;7476;49.404;11.152;2023-09-07T15:14:21;35.00;1.00
14769;DHT22;7476;49.404;11.152;2023-09-07T15:16:48;34.90;1.00
14769;DHT22;7476;49.404;11.152;2023-09-07T15:19:15;35.50;1.00
14769;DHT22;7476;49.404;11.152;2023-09-07T15:21:43;34.80;1.00
14769;DHT22;7476;49.404;11.152;2023-09-07T15:24:09;34.50;1.00
14769;DHT22;7476;49.404;11.152;2023-09-07T15:26:42;35.00;1.00
14769;DHT22;7476;49.404;11.152;2023-09-07T15:29:09;34.70;1.00
14769;DHT22;7476;49.404;11.152;2023-09-07T15:31:35;35.30;1.00
14769;DHT22;7476;49.404;11.152;2023-09-07T15:34:02;35.70;1.00
14769;DHT22;7476;49.404;11.152;2023-09-07T15:36:29;35.40;1.00
14769;DHT22;7476;49.404;11.152;2023-09-07T15:38:57;35.90;1.00
14769;DHT22;7476;49.404;11.152;2023-09-07T15:41:24;35.40;1.00